Barbarossa — ZDFA4 — position and weather

sailwx.info

Track history (hours):
 
Tides and Currents Weather Stations Pressure Air Temp Water Temp Dewpoint Dewpoint Depression Visibility Wind Speed Wind Dir Waves Ship Positions

Barbarossa

Last reported at 2016-Apr-30 23:07 UTC. Time now 2016-May-01 13:40 UTC.
Position N 54°13' E 005°15'.

Length 83 m; draft 5 m.

Type: Cargo ship. MMSI: 236029000.

Date/timePositionNaut miles runAvg speedWind from/ knotsBaromVisibWave heightAir tempDewpointWater temp
2016-Apr-30 23:07N 54°13' E 005°15'610.8
2016-Apr-30 22:33N 54°08' E 005°11'1110.6
2016-Apr-30 21:30N 53°57' E 005°04'1110.4
2016-Apr-30 20:27N 53°47' E 004°57'16410.3
2016-Apr-30 04:30N 51°33' E 002°21'1011.0
2016-Apr-30 03:33N 51°25' E 002°11'1110.6
2016-Apr-30 02:33N 51°15' E 002°04'1010.2
2016-Apr-30 01:33N 51°08' E 001°52'9 9.5
2016-Apr-30 00:33N 51°02' E 001°41'9 9.3
2016-Apr-29 23:32N 50°54' E 001°31'58 9.5
2016-Apr-29 17:24N 50°21' E 000°16'910.5
2016-Apr-29 16:33N 50°19' E 000°03'  
2016-Apr-26 04:33N 38°58' W 009°51'1110.8
2016-Apr-26 03:33N 38°47' W 009°51'1110.9
2016-Apr-26 02:33N 38°37' W 009°50'1110.8
2016-Apr-26 01:32N 38°26' W 009°46'1210.7
2016-Apr-26 00:23N 38°14' W 009°42'910.5
2016-Apr-25 23:31N 38°05' W 009°39'1010.4
2016-Apr-25 22:33N 37°56' W 009°36'1010.1
2016-Apr-25 21:33N 37°46' W 009°33'1010.1
2016-Apr-25 20:33N 37°36' W 009°30'1010.4
2016-Apr-25 19:33N 37°26' W 009°27'1010.2
2016-Apr-25 18:33N 37°16' W 009°24'1010.1
2016-Apr-25 17:33N 37°06' W 009°22'1010.3
2016-Apr-25 16:33N 36°56' W 009°19'1110.0
2016-Apr-25 15:29N 36°47' W 009°11'18210.7
2016-Apr-24 22:31N 35°59' W 005°33'7 7.5
2016-Apr-24 21:33N 36°02' W 005°25'9 8.2
2016-Apr-24 20:29N 36°11' W 005°25'0 0.0
2016-Apr-24 16:32N 36°11' W 005°25'0 0.0
2016-Apr-23 12:05N 36°11' W 005°25'4 8.2
2016-Apr-23 11:33N 36°06' W 005°23'22511.6
2016-Apr-22 16:14N 36°24' W 000°45'  
Track history (hours):
 
Tides and Currents Weather Stations Pressure Air Temp Water Temp Dewpoint Dewpoint Depression Visibility Wind Speed Wind Dir Waves Ship Positions

Barbarossa

Last reported at 2016-Apr-30 23:07 UTC. Time now 2016-May-01 13:40 UTC.
Position N 54°13' E 005°15'.

Length 83 m; draft 5 m.

Type: Cargo ship. MMSI: 236029000.

Date/timePositionNaut miles runAvg speedWind from/ knotsBaromVisibWave heightAir tempDewpointWater temp
2016-Apr-30 23:07N 54°13' E 005°15'610.8
2016-Apr-30 22:33N 54°08' E 005°11'1110.6
2016-Apr-30 21:30N 53°57' E 005°04'1110.4
2016-Apr-30 20:27N 53°47' E 004°57'16410.3
2016-Apr-30 04:30N 51°33' E 002°21'1011.0
2016-Apr-30 03:33N 51°25' E 002°11'1110.6
2016-Apr-30 02:33N 51°15' E 002°04'1010.2
2016-Apr-30 01:33N 51°08' E 001°52'9 9.5
2016-Apr-30 00:33N 51°02' E 001°41'9 9.3
2016-Apr-29 23:32N 50°54' E 001°31'58 9.5
2016-Apr-29 17:24N 50°21' E 000°16'910.5
2016-Apr-29 16:33N 50°19' E 000°03'  
2016-Apr-26 04:33N 38°58' W 009°51'1110.8
2016-Apr-26 03:33N 38°47' W 009°51'1110.9
2016-Apr-26 02:33N 38°37' W 009°50'1110.8
2016-Apr-26 01:32N 38°26' W 009°46'1210.7
2016-Apr-26 00:23N 38°14' W 009°42'910.5
2016-Apr-25 23:31N 38°05' W 009°39'1010.4
2016-Apr-25 22:33N 37°56' W 009°36'1010.1
2016-Apr-25 21:33N 37°46' W 009°33'1010.1
2016-Apr-25 20:33N 37°36' W 009°30'1010.4
2016-Apr-25 19:33N 37°26' W 009°27'1010.2
2016-Apr-25 18:33N 37°16' W 009°24'1010.1
2016-Apr-25 17:33N 37°06' W 009°22'1010.3
2016-Apr-25 16:33N 36°56' W 009°19'1110.0
2016-Apr-25 15:29N 36°47' W 009°11'18210.7
2016-Apr-24 22:31N 35°59' W 005°33'7 7.5
2016-Apr-24 21:33N 36°02' W 005°25'9 8.2
2016-Apr-24 20:29N 36°11' W 005°25'0 0.0
2016-Apr-24 16:32N 36°11' W 005°25'0 0.0
2016-Apr-23 12:05N 36°11' W 005°25'4 8.2
2016-Apr-23 11:33N 36°06' W 005°23'22511.6
2016-Apr-22 16:14N 36°24' W 000°45'  

Dump ship's entire track history